Main page
METAR-TAF:

METAR-TAF

Airports :

Foz do Iguaçu International Airport

Foz do Iguaçu, Paraná, Brazil

latitude: 25-31S, longitude: 054-35W, elevation: 180 m

Current weather observation

The report was made 56 minutes ago, at 05:00 UTC
Wind 6 kt from the East/Southeast
Temperature 22°C
Humidity 73%
Pressure 1016 hPa
Visibility 10 km or more
no clouds below 1500 m and no cumulonimbus

METAR: SBFI 170500Z 11006KT CAVOK 22/17 Q1016

Time: 02:56 (05:56 UTC)

Forecast

The report was made 2 hours and 56 minutes ago, at 03:00 UTC
Forecast valid from 17 at 06 UTC to 18 at 06 UTC
Wind 5 kt from the East/Northeast
Visibility 10 km or more
no clouds below 1500 m and no cumulonimbus
Becoming
from 17 at 12 UTC to 17 at 14 UTC
Wind 9 kt from the North
Becoming
from 17 at 22 UTC to 17 at 24 UTC
Wind 5 kt from the East

TAF: SBFI 170300Z 1706/1806 06005KT CAVOK TN20/1708Z TX31/1718Z BECMG 1712/1714 01009KT BECMG 1722/1724 09005KT RMK PER

Weather observations and forecasts of more than 4000 airports (METAR and TAF reports).

The available stations are represented by yellow and red dots on the map.

Hover mouse over dot to see the name of the station.

Then click to see weather observations and forecasts.

To change the map : click on the green buttons with a black cross to zoom in, on the green button with a dash to zoom out, or on the green arrows for adjacent maps.


METAR-TAF: